Melbourne International Airport
KMLB : now visible

Airfield :











YOU CAN JOIN US ON...

 
LOGIN :

Register | Disclaimer

   EN    FR    IT 

 









Legend :    VFR   Marginal VFR   IFR   Intensive IFR   Very Intensive IFR
Visi :
Ceiling :
>= 8 km
>= 3000ft
5 to 8 km
1000 to 3000 ft
1500m to 5 km
500 to 1000 ft
800 to 1500m
200 to 500 ft
< 800m
< 200 ft
Symbols :   Thunderstorms  Fog  Heavy snow  Heavy precipitations  Wind > 20 kt






- Airport Elevation : 33 ft
- IATA code : MLB


KMLB - Melbourne International

CURRENT METAR :
  • 290653Z AUTO 00000KT 10SM CLR 14/13 A3007 RMK AO2 SLP181 T01440128

EXPIRED METARs :
  • 290553Z AUTO 00000KT 10SM CLR 14/13 A3007 RMK AO2 SLP181 T01440128 10200 20139 58005
  • 290453Z AUTO 00000KT 10SM CLR 15/14 A3008 RMK AO2 SLP184 T01500139 402390150

TAF KMLB
Valid from the 29 at 06:00 until the 30 at 06:00 UTC


290525Z 2906/3006 01002KT P6SM SKC
TEMPO 2909/2912 4SM BR SCT010
FM291400 08010KT P6SM SCT200
FM292300 08005KT P6SM FEW200
KZMA FIR / North America



MET'MAP, your aeronautical weather chart ! - Copyright ORBIFLY December 2007 - Disclaimer

ORBIFLY MET'MAP TEAM :

Programming & Development : Alexandra Zaïnal
Original concept : Baudouin d'Aumeries
Technical & hardware support : Manuel Goepfert
Assistance : Marc-Olivier Méhu




SOURCES & CREDITS :

   NOAA       Earth
Advisory